MAPA DE AEROPUERTO

INFORMACIÓN METAR y TAF

METAR FOR GCLP
ADDS - METARS form results

(1623 UTC 23 October 2021)
Data provider http://aviationweather.gov/metar/data/
 
METAR text: GCLP 231600Z 01016KT 9999 FEW030 BKN045 24/14 Q1018 NOSIG
Conditions at: GCLP (LAS PALMAS/GANDO, ES) observed 1600 UTC 23 October 2021
Temperature: 24.0°C (75°F)
Dewpoint: 14.0°C (57°F) [RH = 54%]
Pressure (altimeter): 30.06 inches Hg (1018.0 mb)
Winds: from the N (10 degrees) at 18 MPH (16 knots; 8.2 m/s)
Visibility: 6 or more miles (10+ km)
Ceiling: 4500 feet AGL
Clouds: few clouds at 3000 feet AGL
broken clouds at 4500 feet AGL
Weather: no significant weather observed at this time

METAR text: GCLP 231530Z 01019KT 9999 FEW030 BKN045 23/15 Q1018 NOSIG
Conditions at: GCLP (LAS PALMAS/GANDO, ES) observed 1530 UTC 23 October 2021
Temperature: 23.0°C (73°F)
Dewpoint: 15.0°C (59°F) [RH = 61%]
Pressure (altimeter): 30.06 inches Hg (1018.0 mb)
Winds: from the N (10 degrees) at 22 MPH (19 knots; 9.8 m/s)
Visibility: 6 or more miles (10+ km)
Ceiling: 4500 feet AGL
Clouds: few clouds at 3000 feet AGL
broken clouds at 4500 feet AGL
Weather: no significant weather observed at this time

Forecast for: GCLP (LAS PALMAS/GANDO, ES)
Text: TAF GCLP 231400Z 2315/2415 02020KT 9999 BKN035 TX24/2414Z TN22/2406Z
Forecast period: 1500 UTC 23 October 2021 to 1500 UTC 24 October 2021
Forecast type: FROM: standard forecast or significant change
Winds: from the NNE (20 degrees) at 23 MPH (20 knots; 10.3 m/s)
Visibility: 6 or more miles (10+ km)
Ceiling: 3500 feet AGL
Clouds: broken clouds at 3500 feet AGL
Weather: no significant weather forecast for this period